METAR Reports From Nearby Airports

 

KLUD - Decatur, Texas, USA
Distance from Wildwood: ESE 5mi, 8km
Updated: Jan 16, 2017 3:35pm
Clear
Clear
 Wind from WNW
Wind: WNW 8 mph , 13 km/h
Temperature: 99°F , 37°C
Heat Index: 118°F , 48°C
Dew Point: 79°F , 26°C
Humidity: 53%
Barometer: 29.99 inHg , 1015.6 hPa
Clouds: Clear
Visibility: 10 miles , 16 km
2017/01/16 21:35 KLUD 162135Z AUTO 29007KT 10SM CLR 37/26 A2999 RMK AO2 T03660261
KXBP - Bridgeport, Texas, USA
Distance from Wildwood: WSW 11mi, 18km
Updated: Jan 16, 2017 3:35pm
Clear
Clear
 Wind from NW
Wind: NW 6 mph , 9 km/h
Temperature: 61°F , 16°C
Dew Point: 46°F , 8°C
Humidity: 59%
Barometer: 30.00 inHg , 1015.9 hPa
Clouds: Clear
Visibility: 10 miles , 16 km
2017/01/16 21:35 KXBP 162135Z AUTO 31005KT 10SM CLR 16/08 A3000 RMK AO2 T01560080
 
K0F2 - Bowie, Texas, USA
Distance from Wildwood: NNW 24mi, 39km
Updated: Jan 16, 2017 3:35pm
Clear
Clear
 Wind from WSW
Wind: WSW 10 mph , 17 km/h
Temperature: 59°F , 15°C
Dew Point: 39°F , 4°C
Humidity: 48%
Barometer: 30.00 inHg , 1015.9 hPa
Clouds: Clear
Visibility: 10 miles , 16 km
2017/01/16 21:35 K0F2 162135Z AUTO 25009KT 10SM CLR 15/04 A3000 RMK AO2 T01450042
KDTO - Denton, Texas, USA
Distance from Wildwood: E 27mi, 44km
Updated: Jan 16, 2017 2:53pm
Clear
Clear
 Wind from WSW
Wind: WSW 12 mph , 19 km/h
Temperature: 61°F , 16°C
Dew Point: 46°F , 8°C
Humidity: 59%
Barometer: 29.98 inHg , 1015.2 hPa
Clouds: Clear
Visibility: 10 miles , 16 km
2017/01/16 20:53 KDTO 162053Z 25010KT 10SM CLR 16/08 A2998 RMK AO2 SLP148 T01560083 56013
 
KAFW - Ft Worth/Allianc, Texas, USA
Distance from Wildwood: SE 29mi, 46km
Updated: Jan 16, 2017 2:53pm
Few Clouds
Few Clouds
 Wind from varies
Wind: varies 7 mph , 11 km/h
Temperature: 63°F , 17°C
Dew Point: 45°F , 7°C
Humidity: 52%
Barometer: 29.98 inHg , 1015.2 hPa
Clouds: Few Clouds
Visibility: 10 miles , 16 km
Cloud details: Few Clouds 25000 ft
2017/01/16 20:53 KAFW 162053Z VRB06KT 10SM FEW250 17/07 A2998 RMK AO2 SLP149 T01720072 56013 $
KFTW - Fort Worth, Texas, USA
Distance from Wildwood: SSE 34mi, 55km
Updated: Jan 16, 2017 2:53pm
Clear
Clear
 Wind from W
Wind: W 6 mph , 9 km/h
Temperature: 64°F , 18°C
Dew Point: 45°F , 7°C
Humidity: 49%
Barometer: 29.97 inHg , 1014.9 hPa
Clouds: Clear
Visibility: 10 miles , 16 km
2017/01/16 20:53 KFTW 162053Z 26005KT 10SM CLR 18/07 A2997 RMK AO2 SLP147 T01780072 56013 $
 
KNFW - Fort Worth Nas, Texas, USA
Distance from Wildwood: SSE 36mi, 58km
Updated: Jan 16, 2017 2:52pm
Clear
Clear
 Wind from WNW
Wind: WNW 9 mph , 15 km/h
Temperature: 64°F , 18°C
Dew Point: 46°F , 8°C
Humidity: 52%
Barometer: 29.98 inHg , 1015.2 hPa
Clouds: Clear
Visibility: 10 miles , 16 km
2017/01/16 20:52 KNFW 162052Z AUTO 30008KT 260V340 10SM CLR 18/08 A2998 RMK AO2 SLP137 T01780078 56013 $
KGLE - Gainesville, Texas, USA
Distance from Wildwood: NE 38mi, 61km
Updated: Jan 16, 2017 3:35pm
Clear
Clear
 Wind from W
Wind: W 8 mph , 13 km/h
Temperature: 59°F , 15°C
Dew Point: 43°F , 6°C
Humidity: 55%
Barometer: 30.00 inHg , 1015.9 hPa
Clouds: Clear
Visibility: 10 miles , 16 km
2017/01/16 21:35 KGLE 162135Z AUTO 27007KT 10SM CLR 15/06 A3000 RMK AO2 T01460056
 
KMWL - Mineral Wells, Texas, USA
Distance from Wildwood: SW 41mi, 65km
Updated: Jan 16, 2017 2:53pm
Clear
Clear
 Wind from WSW
Wind: WSW 5 mph , 7 km/h
Temperature: 61°F , 16°C
Dew Point: 45°F , 7°C
Humidity: 55%
Barometer: 29.97 inHg , 1014.9 hPa
Clouds: Clear
Visibility: 10 miles , 16 km
2017/01/16 20:53 KMWL 162053Z AUTO 24004KT 10SM CLR 16/07 A2997 RMK AO2 SLP147 T01560067 56014
KDFW - Dallas/Ft Worth, Texas, USA
Distance from Wildwood: ESE 45mi, 73km
Updated: Jan 16, 2017 2:53pm
Few Clouds
Few Clouds
 Wind from W
Wind: W 9 mph , 15 km/h
Temperature: 64°F , 18°C
Dew Point: 48°F , 9°C
Humidity: 56%
Barometer: 29.97 inHg , 1014.9 hPa
Clouds: Few Clouds
Visibility: 10 miles , 16 km
Cloud details: Few Clouds 3500 ft
Few Clouds 30000 ft
2017/01/16 20:53 KDFW 162053Z 27008KT 10SM FEW035 FEW300 18/09 A2997 RMK AO2 SLP144 T01830089 56012